Time;durP1;ratioP1;P1;durP2;ratioP2;P2;SDS_P1;SDS_P2;PMS_P1;PMS_P2;Temp;Humidity;BMP_temperature;BMP_pressure;BME280_temperature;BME280_humidity;BME280_pressure;Samples;Min_cycle;Max_cycle;Signal;HPM_P1;HPM_P2
2022/07/03 00:01:27;;;;;;;16.42;4.25;;;29.50;48.60;;;;;;5014821;28;20471;-75
2022/07/03 00:03:53;;;;;;;20.90;5.13;;;29.40;48.50;;;;;;5014696;28;20100;-75
2022/07/03 00:06:18;;;;;;;17.80;4.80;;;29.40;48.20;;;;;;5014857;28;20033;-74
2022/07/03 00:08:44;;;;;;;16.20;5.85;;;29.30;47.90;;;;;;5013526;28;20060;-76
2022/07/03 00:11:11;;;;;;;13.00;5.60;;;29.30;47.70;;;;;;5014552;28;20373;-73
2022/07/03 00:13:37;;;;;;;18.00;6.10;;;29.20;47.40;;;;;;5014834;28;20067;-75
2022/07/03 00:16:03;;;;;;;12.32;5.22;;;29.20;47.30;;;;;;5014553;28;20542;-74
2022/07/03 00:18:29;;;;;;;13.45;4.97;;;29.20;47.00;;;;;;5013190;28;20108;-75
2022/07/03 00:21:04;;;;;;;15.00;5.15;;;29.20;46.90;;;;;;5014592;28;20101;-75
2022/07/03 00:23:41;;;;;;;13.77;5.72;;;29.20;46.80;;;;;;5014609;28;20066;-76
2022/07/03 00:26:08;;;;;;;17.65;5.97;;;29.10;46.00;;;;;;5014797;28;20025;-75
2022/07/03 00:28:34;;;;;;;19.33;6.05;;;29.10;46.70;;;;;;5013127;28;20533;-75
2022/07/03 00:31:01;;;;;;;18.77;6.60;;;29.10;46.80;;;;;;5014332;28;20022;-74
2022/07/03 00:33:29;;;;;;;21.60;8.13;;;29.10;46.70;;;;;;5014407;28;20406;-73
2022/07/03 00:35:56;;;;;;;20.63;8.32;;;29.10;46.80;;;;;;5014371;28;20056;-75
2022/07/03 00:38:23;;;;;;;18.90;8.05;;;29.00;46.60;;;;;;5014186;28;20080;-74
2022/07/03 00:40:49;;;;;;;21.95;9.30;;;29.00;46.90;;;;;;5014139;28;20021;-73
2022/07/03 00:43:16;;;;;;;18.70;9.32;;;29.00;46.80;;;;;;5013943;28;20110;-74
2022/07/03 00:45:47;;;;;;;20.38;9.73;;;29.00;46.50;;;;;;5014034;28;20030;-75
2022/07/03 00:48:18;;;;;;;26.48;12.30;;;29.00;46.70;;;;;;5014206;28;20595;-74
2022/07/03 00:50:51;;;;;;;29.08;13.70;;;29.00;46.70;;;;;;5013869;28;20062;-74
2022/07/03 00:53:29;;;;;;;24.38;12.80;;;29.00;46.80;;;;;;5013941;28;20038;-75
2022/07/03 00:55:55;;;;;;;25.63;14.30;;;29.00;45.70;;;;;;5012631;28;20079;-75
2022/07/03 00:58:22;;;;;;;30.17;14.18;;;29.00;46.60;;;;;;5013971;28;20472;-78
2022/07/03 01:00:52;;;;;;;31.15;15.02;;;29.00;46.50;;;;;;5013606;28;20069;-74
2022/07/03 01:03:21;;;;;;;30.90;16.27;;;29.00;46.80;;;;;;5013849;28;20049;-75
2022/07/03 01:05:52;;;;;;;35.13;17.23;;;29.00;46.60;;;;;;5012404;28;20033;-74
2022/07/03 01:08:33;;;;;;;34.63;15.85;;;29.00;46.90;;;;;;5012084;28;20057;-74
2022/07/03 01:11:19;;;;;;;30.52;16.42;;;29.00;46.00;;;;;;5013532;28;20026;-73
2022/07/03 01:14:02;;;;;;;29.95;16.33;;;28.90;46.30;;;;;;5013732;28;20399;-73
2022/07/03 01:16:40;;;;;;;27.98;15.05;;;28.90;47.10;;;;;;5013734;28;20029;-75
2022/07/03 01:19:09;;;;;;;25.60;15.65;;;28.90;47.20;;;;;;5012110;28;20022;-73
2022/07/03 01:21:47;;;;;;;31.63;17.00;;;28.90;47.20;;;;;;5013581;28;20431;-75
2022/07/03 01:24:39;;;;;;;30.52;15.48;;;28.90;47.40;;;;;;5013398;28;20113;-74
2022/07/03 01:27:10;;;;;;;32.25;16.23;;;28.90;46.30;;;;;;5012755;28;20061;-74
2022/07/03 01:30:01;;;;;;;30.65;14.75;;;28.80;47.30;;;;;;5013617;28;20479;-75
2022/07/03 01:32:37;;;;;;;29.42;14.18;;;28.80;47.40;;;;;;5003748;28;20038;-74
2022/07/03 01:35:03;;;;;;;31.20;13.75;;;28.70;47.50;;;;;;5013396;28;20101;-75
2022/07/03 01:37:31;;;;;;;33.40;13.15;;;28.70;47.30;;;;;;5012142;28;20033;-76
2022/07/03 01:39:58;;;;;;;27.98;12.40;;;28.70;47.50;;;;;;5013337;28;20018;-74
2022/07/03 01:42:24;;;;;;;22.30;12.23;;;28.70;47.60;;;;;;5012130;28;20121;-75
2022/07/03 01:44:57;;;;;;;24.33;12.55;;;28.70;47.70;;;;;;5013340;28;20129;-74
2022/07/03 01:47:24;;;;;;;25.17;12.35;;;28.70;48.60;;;;;;5013540;28;20129;-74
2022/07/03 01:49:51;;;;;;;21.55;11.15;;;28.60;47.90;;;;;;5012955;28;20038;-76
2022/07/03 01:52:19;;;;;;;22.85;11.15;;;28.60;48.10;;;;;;5013544;28;20030;-74
2022/07/03 01:54:46;;;;;;;24.20;11.63;;;28.60;48.10;;;;;;5012201;28;20033;-75
2022/07/03 01:57:12;;;;;;;24.27;11.27;;;28.60;48.10;;;;;;5013449;28;20014;-75
2022/07/03 01:59:37;;;;;;;23.52;9.77;;;28.50;47.60;;;;;;5012256;28;20034;-77
2022/07/03 02:02:29;;;;;;;22.65;10.65;;;28.40;47.60;;;;;;5013233;28;20030;-76
2022/07/03 02:05:02;;;;;;;21.00;10.13;;;28.50;46.60;;;;;;5013628;28;20034;-75
2022/07/03 02:07:42;;;;;;;21.30;11.07;;;28.40;47.70;;;;;;5012947;28;20037;-75
2022/07/03 02:10:15;;;;;;;22.88;10.65;;;28.40;47.60;;;;;;5013044;28;20029;-77
2022/07/03 02:12:49;;;;;;;17.65;10.15;;;28.40;47.60;;;;;;5011742;28;20026;-75
2022/07/03 02:15:20;;;;;;;21.35;9.95;;;28.30;48.20;;;;;;5012975;28;20041;-75
2022/07/03 02:17:48;;;;;;;21.25;10.30;;;28.30;47.50;;;;;;5013078;28;20111;-74
2022/07/03 02:20:17;;;;;;;21.30;10.10;;;28.30;47.50;;;;;;5013243;28;20058;-78
2022/07/03 02:23:03;;;;;;;20.58;9.85;;;28.30;47.40;;;;;;5016765;28;20083;-75
2022/07/03 02:25:44;;;;;;;20.55;9.68;;;28.30;46.20;;;;;;5016723;28;20030;-74
2022/07/03 02:28:18;;;;;;;18.27;9.27;;;28.30;47.40;;;;;;5016527;28;20084;-75
2022/07/03 02:30:51;;;;;;;17.30;8.88;;;28.30;46.30;;;;;;5016722;28;20426;-74
2022/07/03 02:33:22;;;;;;;21.08;9.57;;;28.30;47.30;;;;;;5016285;28;20033;-74
2022/07/03 02:35:50;;;;;;;16.67;9.23;;;28.30;47.20;;;;;;5016494;28;20475;-74
2022/07/03 02:38:18;;;;;;;21.45;9.60;;;28.30;47.40;;;;;;5016481;28;20033;-75
2022/07/03 02:41:02;;;;;;;21.15;9.80;;;28.20;47.40;;;;;;5016359;28;20029;-74
2022/07/03 02:43:41;;;;;;;20.33;8.85;;;28.20;46.30;;;;;;5016395;28;20105;-75
2022/07/03 02:46:49;;;;;;;16.58;9.20;;;28.20;47.30;;;;;;5016560;28;20067;-76
2022/07/03 02:49:50;;;;;;;24.33;9.70;;;28.20;47.30;;;;;;4975108;28;20042;-75
2022/07/03 02:52:42;;;;;;;25.27;9.82;;;28.10;46.30;;;;;;5016296;28;20038;-75
2022/07/03 02:55:16;;;;;;;22.17;9.35;;;28.10;46.50;;;;;;5016255;28;20025;-75
2022/07/03 02:57:43;;;;;;;21.73;8.93;;;28.10;46.60;;;;;;5016690;28;20109;-76
2022/07/03 03:00:11;;;;;;;24.50;9.85;;;28.10;47.60;;;;;;5014650;28;20084;-78
2022/07/03 03:02:37;;;;;;;21.27;10.23;;;28.00;47.70;;;;;;5016405;28;20053;-76
2022/07/03 03:05:12;;;;;;;22.48;10.10;;;27.90;48.00;;;;;;5016048;28;20065;-75
2022/07/03 03:08:01;;;;;;;22.60;10.15;;;27.90;46.90;;;;;;5015908;28;20441;-74
2022/07/03 03:10:28;;;;;;;21.65;9.32;;;27.90;47.00;;;;;;5014315;28;20143;-74
2022/07/03 03:13:10;;;;;;;19.10;8.65;;;27.90;48.00;;;;;;5014513;28;20034;-74
2022/07/03 03:15:37;;;;;;;20.95;9.95;;;27.90;46.70;;;;;;5016026;28;20029;-76
2022/07/03 03:18:10;;;;;;;24.52;9.85;;;27.90;48.00;;;;;;5014672;28;20018;-75
2022/07/03 03:20:38;;;;;;;21.88;9.43;;;28.00;47.80;;;;;;5015332;28;20101;-74
2022/07/03 03:23:40;;;;;;;18.70;9.65;;;28.00;47.80;;;;;;5015669;28;20033;-74
2022/07/03 03:26:06;;;;;;;21.23;10.32;;;28.00;46.70;;;;;;5015679;28;20026;-79
2022/07/03 03:28:33;;;;;;;22.77;9.95;;;28.00;47.80;;;;;;5015668;28;20466;-76
2022/07/03 03:30:59;;;;;;;18.63;10.38;;;27.90;47.60;;;;;;5015159;28;20033;-75
2022/07/03 03:33:26;;;;;;;24.02;9.77;;;27.90;47.50;;;;;;5014079;28;20033;-75
2022/07/03 03:35:52;;;;;;;19.70;9.82;;;27.90;47.60;;;;;;5013976;28;20018;-74
2022/07/03 03:38:18;;;;;;;20.40;9.25;;;27.80;47.50;;;;;;5015503;28;20045;-74
2022/07/03 03:40:45;;;;;;;18.00;9.27;;;27.80;47.70;;;;;;5015287;28;20022;-74
2022/07/03 03:43:11;;;;;;;17.98;9.55;;;27.80;47.80;;;;;;5014189;28;20026;-74
2022/07/03 03:45:37;;;;;;;21.23;9.18;;;27.80;47.40;;;;;;5015806;28;20029;-75
2022/07/03 03:48:03;;;;;;;17.70;9.13;;;27.90;47.60;;;;;;5015239;28;20355;-75
2022/07/03 03:50:29;;;;;;;18.13;8.93;;;27.90;47.10;;;;;;5013475;28;20132;-75
2022/07/03 03:52:54;;;;;;;21.30;8.77;;;27.90;47.30;;;;;;5015071;28;20049;-74
2022/07/03 03:55:20;;;;;;;20.27;9.02;;;27.90;47.50;;;;;;5015103;28;20029;-75
2022/07/03 03:57:46;;;;;;;20.55;8.82;;;27.80;47.10;;;;;;5015085;28;20438;-74
2022/07/03 04:00:12;;;;;;;20.98;8.30;;;27.80;47.30;;;;;;5013706;28;20034;-74
2022/07/03 04:02:38;;;;;;;18.02;8.95;;;27.80;47.00;;;;;;5015134;28;20100;-76
2022/07/03 04:05:04;;;;;;;16.45;7.72;;;27.80;47.30;;;;;;5015046;28;20418;-76
2022/07/03 04:07:30;;;;;;;14.40;7.30;;;27.80;47.00;;;;;;5013544;28;20502;-75
2022/07/03 04:09:56;;;;;;;19.55;7.43;;;27.70;47.50;;;;;;5013415;28;20068;-74
2022/07/03 04:12:22;;;;;;;19.20;7.55;;;27.70;47.30;;;;;;5014699;28;20026;-74
2022/07/03 04:14:48;;;;;;;16.88;8.35;;;27.70;47.40;;;;;;5014685;28;20384;-73
2022/07/03 04:17:13;;;;;;;16.30;7.30;;;27.70;47.50;;;;;;5014481;28;20521;-75
2022/07/03 04:19:39;;;;;;;15.60;6.63;;;27.70;47.40;;;;;;5013694;28;20030;-76
2022/07/03 04:22:08;;;;;;;11.10;6.65;;;27.70;47.40;;;;;;5015255;28;20026;-77
2022/07/03 04:24:35;;;;;;;16.42;6.63;;;27.70;47.50;;;;;;5014862;28;20067;-74
2022/07/03 04:27:01;;;;;;;15.38;6.78;;;27.70;47.60;;;;;;5013046;28;20022;-74
2022/07/03 04:29:27;;;;;;;15.98;7.10;;;27.70;47.30;;;;;;5013969;28;20547;-74
2022/07/03 04:31:52;;;;;;;18.25;6.93;;;27.80;47.30;;;;;;5014537;28;20045;-75
2022/07/03 04:34:18;;;;;;;14.75;6.50;;;27.80;47.30;;;;;;5014314;28;20026;-74
2022/07/03 04:36:44;;;;;;;15.05;6.72;;;27.80;47.30;;;;;;5012932;28;20462;-75
2022/07/03 04:39:09;;;;;;;16.08;6.10;;;27.90;47.10;;;;;;5014344;28;20025;-74
2022/07/03 04:41:35;;;;;;;14.38;6.38;;;27.90;47.20;;;;;;5014181;28;20030;-75
2022/07/03 04:44:01;;;;;;;14.88;6.20;;;27.90;47.10;;;;;;5013491;28;20084;-74
2022/07/03 04:46:26;;;;;;;15.30;6.05;;;28.00;47.20;;;;;;5012993;28;20018;-74
2022/07/03 04:48:52;;;;;;;16.92;7.15;;;28.00;46.90;;;;;;5014023;28;20030;-76
2022/07/03 04:51:18;;;;;;;18.00;7.03;;;28.00;46.80;;;;;;5013888;28;20118;-74
2022/07/03 04:53:43;;;;;;;20.70;6.80;;;28.00;46.90;;;;;;5014029;28;20053;-73
2022/07/03 04:56:10;;;;;;;13.80;6.28;;;28.00;46.70;;;;;;5013847;28;20189;-76
2022/07/03 04:58:36;;;;;;;13.88;6.00;;;28.00;46.80;;;;;;5012724;28;20049;-74
2022/07/03 05:01:02;;;;;;;15.55;6.07;;;28.00;46.80;;;;;;5015003;28;20104;-76
2022/07/03 05:03:27;;;;;;;12.55;6.63;;;28.10;47.00;;;;;;5012857;28;20041;-76
2022/07/03 05:05:53;;;;;;;15.18;6.72;;;28.10;46.80;;;;;;5013808;28;20030;-73
2022/07/03 05:08:22;;;;;;;19.75;6.93;;;28.10;46.70;;;;;;5013869;28;20026;-74
2022/07/03 05:10:48;;;;;;;14.88;6.30;;;28.20;46.10;;;;;;5013480;28;20538;-74
2022/07/03 05:13:13;;;;;;;19.50;5.68;;;28.20;46.40;;;;;;5012291;28;20121;-74
2022/07/03 05:15:39;;;;;;;13.50;5.60;;;28.30;46.50;;;;;;5012203;28;20026;-75
2022/07/03 05:18:05;;;;;;;14.85;5.53;;;28.50;46.50;;;;;;5013664;28;20072;-75
2022/07/03 05:20:31;;;;;;;16.15;6.13;;;28.70;45.80;;;;;;5012221;28;20040;-77
2022/07/03 05:23:01;;;;;;;12.55;5.35;;;28.90;45.90;;;;;;5013353;28;20033;-75
2022/07/03 05:25:28;;;;;;;13.15;6.03;;;29.10;45.90;;;;;;5013518;28;20022;-75
2022/07/03 05:27:55;;;;;;;14.10;5.40;;;29.40;45.20;;;;;;5013391;28;20505;-75
2022/07/03 05:30:22;;;;;;;11.95;5.00;;;29.90;44.70;;;;;;5013658;28;20048;-75
2022/07/03 05:32:48;;;;;;;20.80;5.10;;;30.20;44.30;;;;;;5013511;28;20345;-76
2022/07/03 05:35:13;;;;;;;13.43;5.47;;;30.40;44.00;;;;;;5013768;28;20041;-75
2022/07/03 05:37:39;;;;;;;11.45;4.50;;;30.70;43.80;;;;;;5013652;28;20089;-75
2022/07/03 05:40:06;;;;;;;12.07;5.03;;;30.90;43.50;;;;;;5013895;28;20064;-76
2022/07/03 05:42:32;;;;;;;13.65;4.55;;;31.20;43.40;;;;;;5013282;28;20026;-76
2022/07/03 05:44:58;;;;;;;13.65;4.45;;;31.40;43.30;;;;;;5013670;28;20034;-74
2022/07/03 05:47:24;;;;;;;10.55;4.00;;;31.60;43.00;;;;;;5013455;28;20403;-76
2022/07/03 05:49:49;;;;;;;9.02;3.80;;;31.80;43.00;;;;;;5013101;28;20125;-75
2022/07/03 05:52:16;;;;;;;14.65;3.92;;;31.90;42.80;;;;;;5012204;28;20034;-75
2022/07/03 05:54:42;;;;;;;14.77;4.22;;;32.00;42.60;;;;;;5013117;28;20030;-76
2022/07/03 05:57:09;;;;;;;21.70;4.55;;;32.20;42.40;;;;;;5017299;28;20149;-75
2022/07/03 05:59:35;;;;;;;7.15;3.63;;;32.40;42.40;;;;;;5016966;28;20022;-77
2022/07/03 06:02:01;;;;;;;14.43;4.18;;;32.60;42.10;;;;;;5016992;28;20022;-75
2022/07/03 06:04:26;;;;;;;12.80;3.83;;;32.70;42.20;;;;;;5016014;28;20073;-79
2022/07/03 06:06:54;;;;;;;13.38;4.13;;;32.80;42.00;;;;;;5017634;28;20071;-78
2022/07/03 06:09:20;;;;;;;16.67;4.22;;;33.00;41.90;;;;;;5016284;28;20025;-75
2022/07/03 06:11:47;;;;;;;10.73;4.15;;;33.10;41.80;;;;;;5015489;28;20022;-76
2022/07/03 06:14:13;;;;;;;12.65;4.50;;;33.20;41.70;;;;;;5016786;28;20418;-75
2022/07/03 06:16:39;;;;;;;12.25;4.22;;;33.30;41.40;;;;;;5016927;28;20388;-76
2022/07/03 06:19:05;;;;;;;14.13;4.00;;;33.50;41.30;;;;;;5016734;28;20022;-75
2022/07/03 06:21:31;;;;;;;12.05;3.92;;;33.60;41.00;;;;;;5016642;28;20041;-75
2022/07/03 06:23:57;;;;;;;20.13;4.57;;;33.80;40.80;;;;;;5015446;28;20030;-75
2022/07/03 06:26:23;;;;;;;16.00;4.93;;;33.80;40.70;;;;;;5016513;28;20022;-75
2022/07/03 06:28:49;;;;;;;11.30;3.97;;;34.00;40.40;;;;;;5016881;28;20018;-74
2022/07/03 06:31:15;;;;;;;13.02;4.15;;;34.20;40.40;;;;;;5016524;28;20106;-75
2022/07/03 06:33:42;;;;;;;14.82;3.83;;;34.30;40.00;;;;;;5016642;28;20030;-76
2022/07/03 06:36:07;;;;;;;13.40;4.10;;;34.40;40.40;;;;;;5016710;28;20026;-73
2022/07/03 06:38:33;;;;;;;14.80;4.00;;;34.50;39.70;;;;;;5016224;28;20033;-74
2022/07/03 06:40:59;;;;;;;11.00;3.75;;;34.70;39.30;;;;;;5015218;28;20105;-75
2022/07/03 06:43:24;;;;;;;11.57;3.80;;;34.80;39.20;;;;;;5016362;28;20040;-74
2022/07/03 06:45:50;;;;;;;14.48;4.05;;;34.80;39.00;;;;;;5016590;28;20030;-76
2022/07/03 06:48:16;;;;;;;9.05;3.55;;;34.90;38.70;;;;;;5014994;28;20471;-75
2022/07/03 06:50:41;;;;;;;10.55;4.25;;;35.10;38.80;;;;;;5014874;28;20077;-75
2022/07/03 06:53:07;;;;;;;14.50;4.03;;;35.10;38.70;;;;;;5016031;28;20026;-74
2022/07/03 06:55:33;;;;;;;16.33;3.55;;;35.30;38.60;;;;;;5015767;28;20045;-75
2022/07/03 06:57:59;;;;;;;12.27;4.05;;;35.30;38.50;;;;;;5016265;28;20375;-76
2022/07/03 07:00:26;;;;;;;11.45;4.38;;;35.30;38.00;;;;;;5015713;28;20034;-76
2022/07/03 07:02:52;;;;;;;13.90;4.38;;;35.40;37.90;;;;;;5015706;28;20022;-74
2022/07/03 07:05:17;;;;;;;14.77;4.15;;;35.50;37.90;;;;;;5015342;28;20156;-74
2022/07/03 07:07:43;;;;;;;17.38;4.30;;;35.50;37.60;;;;;;5015048;28;20026;-73
2022/07/03 07:10:09;;;;;;;10.38;3.90;;;35.70;37.70;;;;;;5015749;28;20029;-76
2022/07/03 07:12:35;;;;;;;12.95;4.50;;;35.70;37.40;;;;;;5015964;28;20117;-75
2022/07/03 07:15:01;;;;;;;13.90;3.97;;;35.70;37.80;;;;;;5015832;28;20420;-73
2022/07/03 07:17:26;;;;;;;14.05;4.00;;;35.70;36.90;;;;;;5014508;28;20128;-74
2022/07/03 07:19:55;;;;;;;15.18;4.28;;;35.80;36.80;;;;;;5015391;28;20030;-77
2022/07/03 07:22:21;;;;;;;20.85;4.80;;;35.90;37.00;;;;;;5015245;28;20014;-75
2022/07/03 07:24:48;;;;;;;14.00;5.55;;;36.00;36.60;;;;;;5013681;28;20549;-75
2022/07/03 07:27:14;;;;;;;12.30;4.43;;;36.00;36.60;;;;;;5015143;28;20057;-75
2022/07/03 07:29:40;;;;;;;11.65;4.40;;;36.00;36.60;;;;;;5014970;28;20022;-78
2022/07/03 07:32:06;;;;;;;16.15;4.95;;;36.00;36.80;;;;;;5015048;28;20546;-76
2022/07/03 07:34:32;;;;;;;12.77;4.32;;;36.10;36.40;;;;;;5014898;28;20025;-78
2022/07/03 07:36:59;;;;;;;10.30;4.22;;;36.10;36.40;;;;;;5015395;28;20029;-77
2022/07/03 07:39:24;;;;;;;16.70;5.25;;;36.10;36.50;;;;;;5015666;28;20100;-78
2022/07/03 07:41:51;;;;;;;14.35;3.97;;;36.20;36.30;;;;;;5015603;28;20061;-79
2022/07/03 07:44:17;;;;;;;9.65;4.80;;;36.10;35.90;;;;;;5016055;28;20038;-79
2022/07/03 07:46:45;;;;;;;17.65;4.80;;;36.10;36.30;;;;;;5017473;28;20021;-74
2022/07/03 07:49:11;;;;;;;10.30;4.10;;;36.10;35.80;;;;;;5019095;28;20065;-78
2022/07/03 07:51:36;;;;;;;17.02;4.95;;;36.10;36.00;;;;;;5018547;28;20484;-76
2022/07/03 07:54:02;;;;;;;18.05;6.65;;;36.10;36.20;;;;;;5015491;28;20045;-77
2022/07/03 07:56:28;;;;;;;14.93;4.45;;;36.10;35.90;;;;;;5015316;28;20097;-76
2022/07/03 07:58:53;;;;;;;16.10;4.95;;;36.10;36.00;;;;;;5015194;28;20030;-75
2022/07/03 08:06:48;;;;;;;15.63;4.75;;;35.80;36.30;;;;;;5015082;28;20045;-77
2022/07/03 08:09:14;;;;;;;12.40;3.97;;;35.70;36.10;;;;;;5015332;28;20030;-78
2022/07/03 08:11:39;;;;;;;14.43;5.10;;;35.70;36.30;;;;;;5014865;28;20101;-74
2022/07/03 08:14:07;;;;;;;11.95;4.20;;;35.70;36.60;;;;;;5014853;28;20044;-78
2022/07/03 08:16:34;;;;;;;17.30;4.15;;;35.60;36.70;;;;;;5013928;28;20026;-80
2022/07/03 08:19:00;;;;;;;13.93;4.43;;;35.60;36.60;;;;;;5012802;28;20026;-79
2022/07/03 08:21:26;;;;;;;12.50;4.18;;;35.50;36.80;;;;;;5015002;28;20080;-75
2022/07/03 08:23:51;;;;;;;20.73;4.45;;;35.40;36.90;;;;;;5014839;28;20471;-75
2022/07/03 08:26:17;;;;;;;20.80;4.85;;;35.40;36.80;;;;;;5014846;28;20048;-76
2022/07/03 08:28:43;;;;;;;14.60;4.20;;;35.40;37.00;;;;;;5013368;28;20398;-75
2022/07/03 08:31:08;;;;;;;24.00;5.00;;;35.30;36.90;;;;;;5014789;28;20148;-74
2022/07/03 08:33:34;;;;;;;19.45;4.95;;;35.30;37.10;;;;;;5013134;28;20030;-74
2022/07/03 08:36:00;;;;;;;16.40;4.07;;;35.20;37.10;;;;;;5014487;28;20121;-75
2022/07/03 08:38:33;;;;;;;14.63;3.92;;;35.20;37.20;;;;;;5013831;28;20052;-76
2022/07/03 08:41:04;;;;;;;16.58;5.05;;;35.10;37.40;;;;;;5093592;27;1347346;-74
2022/07/03 08:43:30;;;;;;;15.77;5.63;;;35.10;37.50;;;;;;5131738;27;20460;-76
2022/07/03 08:45:58;;;;;;;11.50;4.38;;;35.10;37.90;;;;;;5131928;27;20023;-75
2022/07/03 08:48:25;;;;;;;14.73;4.38;;;35.00;37.60;;;;;;5131592;27;20024;-74
2022/07/03 08:50:52;;;;;;;13.13;4.50;;;35.00;37.70;;;;;;5130157;27;20114;-75
2022/07/03 08:53:18;;;;;;;17.77;4.97;;;34.90;37.70;;;;;;5129711;28;20028;-79
2022/07/03 08:55:47;;;;;;;15.90;4.47;;;34.90;37.90;;;;;;5131548;27;20027;-77
2022/07/03 08:58:16;;;;;;;13.38;4.38;;;34.80;37.80;;;;;;5130607;28;20495;-76
2022/07/03 09:00:43;;;;;;;23.95;5.00;;;34.80;37.80;;;;;;5131342;27;20039;-75
2022/07/03 09:03:14;;;;;;;12.68;4.60;;;34.80;37.70;;;;;;5129941;28;20547;-74
2022/07/03 09:05:40;;;;;;;15.93;4.55;;;34.90;37.80;;;;;;5131356;27;20051;-75
2022/07/03 09:08:10;;;;;;;15.07;4.25;;;34.80;37.60;;;;;;5131426;27;20047;-75
2022/07/03 09:10:36;;;;;;;12.88;4.20;;;34.80;37.70;;;;;;5129767;27;20024;-75
2022/07/03 09:13:02;;;;;;;15.32;4.63;;;34.80;37.50;;;;;;5131060;27;20028;-76
2022/07/03 09:15:28;;;;;;;10.73;4.00;;;34.90;37.70;;;;;;5131318;27;20030;-75
2022/07/03 09:18:05;;;;;;;15.88;4.50;;;34.90;37.80;;;;;;5131599;27;20114;-75
2022/07/03 09:20:41;;;;;;;13.43;4.43;;;34.90;37.50;;;;;;5134352;27;20046;-77
2022/07/03 09:23:12;;;;;;;12.60;3.95;;;34.90;37.40;;;;;;5153171;27;20042;-77
2022/07/03 09:25:54;;;;;;;13.88;4.75;;;34.80;37.10;;;;;;5136027;28;20028;-74
2022/07/03 09:28:21;;;;;;;13.15;4.93;;;34.80;37.30;;;;;;5130201;28;20046;-75
2022/07/03 09:30:58;;;;;;;13.55;4.97;;;34.80;37.30;;;;;;5130443;27;20096;-75
2022/07/03 09:33:24;;;;;;;15.88;5.10;;;34.80;37.20;;;;;;5130980;27;20111;-75
2022/07/03 09:35:54;;;;;;;12.48;4.40;;;34.80;37.30;;;;;;5129661;28;20054;-75
2022/07/03 09:38:20;;;;;;;16.73;4.40;;;34.80;37.30;;;;;;5129050;28;20485;-74
2022/07/03 09:40:56;;;;;;;12.68;4.15;;;34.90;36.80;;;;;;5129983;27;20047;-77
2022/07/03 09:43:30;;;;;;;15.95;3.83;;;34.90;36.60;;;;;;5130440;27;20498;-75
2022/07/03 09:46:00;;;;;;;16.67;4.50;;;34.90;36.70;;;;;;5130173;27;20028;-75
2022/07/03 09:48:27;;;;;;;14.85;4.50;;;34.90;36.60;;;;;;5130749;27;20016;-74
2022/07/03 09:51:19;;;;;;;10.98;4.05;;;35.00;36.30;;;;;;5125644;27;20468;-78
2022/07/03 09:53:52;;;;;;;14.38;4.13;;;35.00;37.10;;;;;;5117185;27;20110;-75
2022/07/03 09:56:24;;;;;;;15.23;4.35;;;35.00;37.00;;;;;;5116558;28;20026;-76
2022/07/03 09:59:05;;;;;;;12.25;4.50;;;35.10;36.40;;;;;;5116458;28;20032;-78
2022/07/03 10:01:31;;;;;;;12.60;4.53;;;35.10;36.90;;;;;;5116583;28;20365;-76
2022/07/03 10:04:10;;;;;;;15.25;4.25;;;35.10;36.40;;;;;;5116733;28;20047;-75
2022/07/03 10:06:53;;;;;;;15.63;3.80;;;35.10;36.50;;;;;;5116808;28;20034;-76
2022/07/03 10:09:21;;;;;;;12.93;3.83;;;35.10;36.30;;;;;;5117027;28;20039;-76
2022/07/03 10:11:47;;;;;;;17.02;4.05;;;35.20;36.20;;;;;;5116769;28;20027;-76
2022/07/03 10:14:15;;;;;;;16.17;4.20;;;35.10;36.10;;;;;;5116377;28;20111;-75
2022/07/03 10:16:44;;;;;;;15.82;4.50;;;35.20;36.20;;;;;;5115211;28;20044;-76
2022/07/03 10:19:14;;;;;;;19.42;4.47;;;35.20;36.40;;;;;;5116380;28;20492;-76
2022/07/03 10:21:42;;;;;;;14.30;4.30;;;35.30;36.10;;;;;;5116090;28;20072;-75
2022/07/03 10:24:10;;;;;;;12.90;4.32;;;35.40;36.20;;;;;;5115910;28;20023;-76
2022/07/03 10:26:36;;;;;;;10.65;4.07;;;35.40;36.60;;;;;;5115970;28;20034;-78
2022/07/03 10:29:02;;;;;;;18.15;4.13;;;35.40;35.70;;;;;;5116321;28;20026;-78
2022/07/03 10:31:28;;;;;;;14.93;4.22;;;35.40;35.90;;;;;;5115809;28;20027;-76
2022/07/03 10:33:56;;;;;;;11.52;3.50;;;35.50;35.90;;;;;;5115977;28;20035;-75
2022/07/03 10:36:22;;;;;;;12.50;3.55;;;35.60;35.70;;;;;;5116104;28;20015;-74
2022/07/03 10:38:49;;;;;;;13.15;4.38;;;35.70;35.50;;;;;;5115943;28;20122;-77
2022/07/03 10:47:04;;;;;;;13.90;4.15;;;35.80;35.30;;;;;;5115945;28;20511;-76
2022/07/03 10:49:30;;;;;;;11.23;4.20;;;35.80;34.90;;;;;;5114327;28;20081;-75
2022/07/03 10:52:03;;;;;;;12.00;3.92;;;35.90;34.70;;;;;;5114116;28;20020;-76
2022/07/03 10:54:49;;;;;;;12.43;3.63;;;35.90;34.30;;;;;;5115597;28;20543;-76
2022/07/03 10:57:17;;;;;;;10.38;4.13;;;35.90;34.10;;;;;;5115725;28;20039;-75
2022/07/03 10:59:44;;;;;;;9.48;3.95;;;36.00;34.40;;;;;;5115330;28;20027;-75
2022/07/03 11:02:32;;;;;;;11.23;3.70;;;36.00;34.10;;;;;;5114959;28;20085;-77
2022/07/03 11:04:58;;;;;;;11.38;3.90;;;36.00;34.50;;;;;;5113685;28;20349;-75
2022/07/03 11:07:31;;;;;;;12.38;4.28;;;36.10;33.90;;;;;;5115542;27;20070;-75
2022/07/03 11:10:05;;;;;;;;;;;36.10;33.90;;;;;;5115228;28;20028;-77
2022/07/03 11:12:56;;;;;;;12.07;3.63;;;36.10;33.60;;;;;;5113670;28;20307;-77
2022/07/03 11:15:41;;;;;;;11.32;3.45;;;36.10;32.80;;;;;;5115187;28;20024;-76
2022/07/03 11:18:23;;;;;;;11.38;5.18;;;36.20;32.10;;;;;;5115182;28;20027;-77
2022/07/03 11:21:10;;;;;;;11.68;4.03;;;36.30;32.20;;;;;;5113695;28;20081;-76
2022/07/03 11:23:56;;;;;;;13.25;3.92;;;36.40;31.80;;;;;;5114085;28;20054;-76
2022/07/03 11:26:23;;;;;;;11.48;3.63;;;36.40;31.60;;;;;;5113599;28;20387;-77
2022/07/03 11:28:53;;;;;;;8.07;3.35;;;36.50;31.40;;;;;;5114771;28;20016;-75
2022/07/03 11:31:21;;;;;;;10.25;3.33;;;36.50;30.60;;;;;;5113660;28;20055;-78
2022/07/03 11:33:56;;;;;;;11.20;3.72;;;36.50;30.50;;;;;;5113222;28;20016;-76
2022/07/03 11:36:21;;;;;;;10.48;3.53;;;36.60;30.30;;;;;;5113479;28;20453;-78
2022/07/03 11:39:00;;;;;;;14.75;3.88;;;36.70;30.30;;;;;;5112818;28;20059;-75
2022/07/03 11:41:47;;;;;;;9.07;3.78;;;36.80;30.50;;;;;;5114208;28;20039;-76
2022/07/03 11:44:19;;;;;;;15.98;4.15;;;36.90;30.10;;;;;;5113196;28;20039;-79
2022/07/03 11:46:50;;;;;;;11.93;3.83;;;37.00;30.40;;;;;;5113720;28;20034;-76
2022/07/03 11:49:18;;;;;;;9.27;3.53;;;37.00;30.20;;;;;;5113844;28;20027;-77
2022/07/03 11:51:56;;;;;;;8.57;3.60;;;37.10;30.40;;;;;;5113843;28;20033;-77
2022/07/03 11:54:22;;;;;;;14.10;3.60;;;37.20;30.10;;;;;;5113908;28;20098;-75
2022/07/03 11:56:48;;;;;;;13.48;3.83;;;37.20;30.30;;;;;;5113764;28;20217;-78
2022/07/03 11:59:15;;;;;;;14.52;4.10;;;37.40;30.30;;;;;;5112407;28;20448;-76
2022/07/03 12:01:40;;;;;;;13.50;3.33;;;37.40;30.00;;;;;;5112272;28;20452;-77
2022/07/03 12:04:18;;;;;;;12.18;3.80;;;37.40;29.90;;;;;;5113537;28;20110;-77
2022/07/03 12:06:48;;;;;;;14.82;3.95;;;37.50;29.40;;;;;;5113853;28;20015;-78
2022/07/03 12:09:34;;;;;;;11.95;3.80;;;37.60;30.90;;;;;;5112469;28;20076;-79
2022/07/03 12:12:04;;;;;;;14.43;4.45;;;37.60;32.30;;;;;;5113793;28;20020;-76
2022/07/03 12:14:50;;;;;;;12.38;4.43;;;37.70;32.90;;;;;;5113168;28;20015;-78
2022/07/03 12:17:15;;;;;;;20.73;4.82;;;37.70;33.80;;;;;;5113714;28;20087;-77
2022/07/03 12:19:45;;;;;;;14.32;4.28;;;37.60;33.90;;;;;;5113307;28;20480;-78
2022/07/03 12:22:11;;;;;;;13.45;4.13;;;37.60;34.40;;;;;;5111667;28;20396;-79
2022/07/03 12:24:37;;;;;;;13.07;4.05;;;37.60;34.50;;;;;;5111786;28;20024;-80
2022/07/03 12:27:04;;;;;;;12.65;4.05;;;37.60;34.90;;;;;;5113196;28;20105;-76
2022/07/03 12:29:31;;;;;;;14.25;3.92;;;37.60;34.90;;;;;;5111882;28;20487;-79
2022/07/03 12:31:57;;;;;;;12.18;3.92;;;37.60;35.10;;;;;;5113049;28;20148;-76
2022/07/03 12:34:23;;;;;;;12.60;3.88;;;37.70;35.10;;;;;;5111497;28;20051;-76
2022/07/03 12:36:59;;;;;;;12.68;4.60;;;37.70;34.70;;;;;;5112972;28;20024;-76
2022/07/03 12:39:46;;;;;;;15.05;3.90;;;37.70;34.80;;;;;;5112626;28;20043;-78
2022/07/03 12:42:15;;;;;;;20.33;4.53;;;37.70;35.00;;;;;;5111662;28;20369;-78
2022/07/03 12:44:41;;;;;;;11.88;4.07;;;37.70;34.50;;;;;;5113058;28;20153;-75
2022/07/03 12:47:07;;;;;;;18.98;4.40;;;37.70;34.70;;;;;;5112666;28;20445;-75
2022/07/03 12:49:33;;;;;;;11.80;3.85;;;37.70;34.40;;;;;;5112579;28;20030;-75
2022/07/03 12:51:58;;;;;;;15.85;4.18;;;37.70;34.40;;;;;;5112783;28;20022;-75
2022/07/03 12:54:37;;;;;;;10.55;3.53;;;37.70;34.00;;;;;;5112683;28;20027;-75
2022/07/03 13:00:11;;;;;;;13.43;4.40;;;37.80;34.30;;;;;;5112839;28;20073;-74
2022/07/03 13:02:41;;;;;;;15.02;4.10;;;37.80;34.00;;;;;;5113023;28;20019;-76